Kansas City, Missouri
Traffic Map
Current Weather Conditions
Kansas City, Missouri
Overcast Light Rain
Overcast
58°
Feels Like: 58°
Wind Chill: 58° Ceiling: 3900
Heat Index: 58° Visibility: 10mi
Dew Point: 53° Wind: 5mph
Humidity: 84% Direction: 190° (S)
Pressure: 30.22in Gusts: 0mph
Raw Report DataKMKC 231154Z 19004KT 10SM -RA OVC039 14/12 A3022 RMK AO2 RAB19 SLP232 P0002 60002 70002 T01440117 10178 20144 53010
Traffic Incident Summary
Active as of:
Severity:
Category:
InformationThere was an issue retrieving the traffic information for this location. Please try a different location or try again shortly.
Advertisements
Track Severe Weather on mobile